Welcome to the New NWS' Forecast!
Most changes are behind the scenes, but click here for differences you might notice.

Terminal Aerodrome Forecast (TAF)

Issued by National Weather Service (NWS)

                            
000
FTUS42 KKEY 122340
TAFEYW
TAF
KEYW 122340Z 1300/1324 VRB04KT P6SM FEW025 SCT250
     FM130600 14005KT P6SM SCT025 SCT250=

285 
FTUS42 KKEY 122340
TAFEYW
TAF
KEYW 122340Z 1300/1324 VRB04KT P6SM FEW025 SCT250
     FM130600 14005KT P6SM SCT025 SCT250=